sensor_id;sensor_type;location;lat;lon;timestamp;temperature;humidity
17421;DHT22;8828;48.800;9.540;2022-07-18T00:01:10;21.00;74.80
17421;DHT22;8828;48.800;9.540;2022-07-18T00:03:39;21.00;74.70
17421;DHT22;8828;48.800;9.540;2022-07-18T00:06:07;21.00;74.70
17421;DHT22;8828;48.800;9.540;2022-07-18T00:08:35;20.90;74.50
17421;DHT22;8828;48.800;9.540;2022-07-18T00:11:03;20.90;75.10
17421;DHT22;8828;48.800;9.540;2022-07-18T00:13:31;20.90;74.60
17421;DHT22;8828;48.800;9.540;2022-07-18T00:15:59;20.90;75.00
17421;DHT22;8828;48.800;9.540;2022-07-18T00:18:27;20.90;76.00
17421;DHT22;8828;48.800;9.540;2022-07-18T00:20:57;20.90;75.20
17421;DHT22;8828;48.800;9.540;2022-07-18T00:23:25;20.90;75.40
17421;DHT22;8828;48.800;9.540;2022-07-18T00:25:53;20.90;75.70
17421;DHT22;8828;48.800;9.540;2022-07-18T00:28:21;20.80;75.90
17421;DHT22;8828;48.800;9.540;2022-07-18T00:30:49;20.80;76.20
17421;DHT22;8828;48.800;9.540;2022-07-18T00:33:17;20.70;76.20
17421;DHT22;8828;48.800;9.540;2022-07-18T00:35:45;20.70;76.40
17421;DHT22;8828;48.800;9.540;2022-07-18T00:38:14;20.70;77.30
17421;DHT22;8828;48.800;9.540;2022-07-18T00:40:42;20.60;76.80
17421;DHT22;8828;48.800;9.540;2022-07-18T00:43:12;20.60;77.10
17421;DHT22;8828;48.800;9.540;2022-07-18T00:45:44;20.50;77.30
17421;DHT22;8828;48.800;9.540;2022-07-18T00:48:13;20.50;77.50
17421;DHT22;8828;48.800;9.540;2022-07-18T00:50:42;20.50;77.50
17421;DHT22;8828;48.800;9.540;2022-07-18T00:53:11;20.50;77.60
17421;DHT22;8828;48.800;9.540;2022-07-18T00:55:42;20.40;77.70
17421;DHT22;8828;48.800;9.540;2022-07-18T00:58:11;20.40;78.00
17421;DHT22;8828;48.800;9.540;2022-07-18T01:00:41;20.40;78.10
17421;DHT22;8828;48.800;9.540;2022-07-18T01:03:27;20.30;79.10
17421;DHT22;8828;48.800;9.540;2022-07-18T01:05:55;20.30;78.50
17421;DHT22;8828;48.800;9.540;2022-07-18T01:08:23;20.20;78.50
17421;DHT22;8828;48.800;9.540;2022-07-18T01:10:53;20.20;78.40
17421;DHT22;8828;48.800;9.540;2022-07-18T01:13:21;20.10;78.40
17421;DHT22;8828;48.800;9.540;2022-07-18T01:15:49;20.10;78.20
17421;DHT22;8828;48.800;9.540;2022-07-18T01:18:17;20.10;78.10
17421;DHT22;8828;48.800;9.540;2022-07-18T01:20:47;20.10;78.00
17421;DHT22;8828;48.800;9.540;2022-07-18T01:23:15;20.00;78.10
17421;DHT22;8828;48.800;9.540;2022-07-18T01:25:43;20.00;78.10
17421;DHT22;8828;48.800;9.540;2022-07-18T01:28:11;19.90;77.80
17421;DHT22;8828;48.800;9.540;2022-07-18T01:30:40;19.90;77.70
17421;DHT22;8828;48.800;9.540;2022-07-18T01:33:08;19.90;77.80
17421;DHT22;8828;48.800;9.540;2022-07-18T01:35:36;19.90;78.10
17421;DHT22;8828;48.800;9.540;2022-07-18T01:38:05;19.90;78.30
17421;DHT22;8828;48.800;9.540;2022-07-18T01:40:33;19.80;78.10
17421;DHT22;8828;48.800;9.540;2022-07-18T01:43:01;19.80;78.40
17421;DHT22;8828;48.800;9.540;2022-07-18T01:45:29;19.70;78.50
17421;DHT22;8828;48.800;9.540;2022-07-18T01:47:57;19.70;78.60
17421;DHT22;8828;48.800;9.540;2022-07-18T01:50:25;19.70;78.60
17421;DHT22;8828;48.800;9.540;2022-07-18T01:52:54;19.70;78.70
17421;DHT22;8828;48.800;9.540;2022-07-18T01:55:23;19.70;78.70
17421;DHT22;8828;48.800;9.540;2022-07-18T01:57:51;19.70;78.90
17421;DHT22;8828;48.800;9.540;2022-07-18T02:00:19;19.70;79.00
17421;DHT22;8828;48.800;9.540;2022-07-18T02:02:47;19.70;78.90
17421;DHT22;8828;48.800;9.540;2022-07-18T02:05:15;19.70;79.00
17421;DHT22;8828;48.800;9.540;2022-07-18T02:07:43;19.60;78.80
17421;DHT22;8828;48.800;9.540;2022-07-18T02:10:13;19.60;78.80
17421;DHT22;8828;48.800;9.540;2022-07-18T02:12:43;19.60;79.00
17421;DHT22;8828;48.800;9.540;2022-07-18T02:15:12;19.60;78.80
17421;DHT22;8828;48.800;9.540;2022-07-18T02:17:40;19.60;78.70
17421;DHT22;8828;48.800;9.540;2022-07-18T02:20:10;19.50;78.80
17421;DHT22;8828;48.800;9.540;2022-07-18T02:22:39;19.40;78.90
17421;DHT22;8828;48.800;9.540;2022-07-18T02:25:08;19.40;79.00
17421;DHT22;8828;48.800;9.540;2022-07-18T02:27:36;19.40;78.90
17421;DHT22;8828;48.800;9.540;2022-07-18T02:30:08;19.40;79.60
17421;DHT22;8828;48.800;9.540;2022-07-18T02:32:36;19.40;79.00
17421;DHT22;8828;48.800;9.540;2022-07-18T02:35:06;19.30;78.90
17421;DHT22;8828;48.800;9.540;2022-07-18T02:37:35;19.30;79.00
17421;DHT22;8828;48.800;9.540;2022-07-18T02:40:06;19.30;79.10
17421;DHT22;8828;48.800;9.540;2022-07-18T02:42:35;19.30;79.00
17421;DHT22;8828;48.800;9.540;2022-07-18T02:45:03;19.30;79.30
17421;DHT22;8828;48.800;9.540;2022-07-18T02:47:33;19.20;79.20
17421;DHT22;8828;48.800;9.540;2022-07-18T02:50:01;19.10;79.20
17421;DHT22;8828;48.800;9.540;2022-07-18T02:52:29;19.10;80.00
17421;DHT22;8828;48.800;9.540;2022-07-18T02:54:57;19.10;79.40
17421;DHT22;8828;48.800;9.540;2022-07-18T02:57:27;19.20;79.40
17421;DHT22;8828;48.800;9.540;2022-07-18T02:59:55;19.10;79.40
17421;DHT22;8828;48.800;9.540;2022-07-18T03:02:23;19.10;79.20
17421;DHT22;8828;48.800;9.540;2022-07-18T03:04:53;19.10;79.20
17421;DHT22;8828;48.800;9.540;2022-07-18T03:07:21;19.10;78.90
17421;DHT22;8828;48.800;9.540;2022-07-18T03:09:48;19.10;78.80
17421;DHT22;8828;48.800;9.540;2022-07-18T03:12:17;19.00;78.90
17421;DHT22;8828;48.800;9.540;2022-07-18T03:14:45;19.00;78.90
17421;DHT22;8828;48.800;9.540;2022-07-18T03:17:13;19.00;78.60
17421;DHT22;8828;48.800;9.540;2022-07-18T03:19:41;18.90;78.40
17421;DHT22;8828;48.800;9.540;2022-07-18T03:22:11;18.80;78.60
17421;DHT22;8828;48.800;9.540;2022-07-18T03:24:39;18.80;79.00
17421;DHT22;8828;48.800;9.540;2022-07-18T03:27:07;18.60;79.20
17421;DHT22;8828;48.800;9.540;2022-07-18T03:29:35;18.70;79.50
17421;DHT22;8828;48.800;9.540;2022-07-18T03:32:03;18.70;79.50
17421;DHT22;8828;48.800;9.540;2022-07-18T03:34:31;18.60;79.60
17421;DHT22;8828;48.800;9.540;2022-07-18T03:36:59;18.60;80.40
17421;DHT22;8828;48.800;9.540;2022-07-18T03:39:29;18.60;79.80
17421;DHT22;8828;48.800;9.540;2022-07-18T03:41:56;18.60;80.10
17421;DHT22;8828;48.800;9.540;2022-07-18T03:44:24;18.50;80.20
17421;DHT22;8828;48.800;9.540;2022-07-18T03:46:52;18.60;80.20
17421;DHT22;8828;48.800;9.540;2022-07-18T03:49:20;18.60;80.20
17421;DHT22;8828;48.800;9.540;2022-07-18T03:51:49;18.60;80.00
17421;DHT22;8828;48.800;9.540;2022-07-18T03:54:16;18.60;79.90
17421;DHT22;8828;48.800;9.540;2022-07-18T03:56:46;18.60;79.90
17421;DHT22;8828;48.800;9.540;2022-07-18T03:59:14;18.60;80.80
17421;DHT22;8828;48.800;9.540;2022-07-18T04:01:42;18.70;80.00
17421;DHT22;8828;48.800;9.540;2022-07-18T04:04:10;18.70;80.10
17421;DHT22;8828;48.800;9.540;2022-07-18T04:06:38;18.60;80.30
17421;DHT22;8828;48.800;9.540;2022-07-18T04:09:06;18.60;80.40
17421;DHT22;8828;48.800;9.540;2022-07-18T04:11:34;18.60;80.80
17421;DHT22;8828;48.800;9.540;2022-07-18T04:14:03;18.60;80.90
17421;DHT22;8828;48.800;9.540;2022-07-18T04:16:31;18.60;81.00
17421;DHT22;8828;48.800;9.540;2022-07-18T04:19:00;18.60;81.30
17421;DHT22;8828;48.800;9.540;2022-07-18T04:21:28;18.60;81.60
17421;DHT22;8828;48.800;9.540;2022-07-18T04:23:56;18.50;81.80
17421;DHT22;8828;48.800;9.540;2022-07-18T04:26:24;18.50;82.10
17421;DHT22;8828;48.800;9.540;2022-07-18T04:28:52;18.50;82.20
17421;DHT22;8828;48.800;9.540;2022-07-18T04:31:21;18.40;82.40
17421;DHT22;8828;48.800;9.540;2022-07-18T04:33:49;18.50;82.30
17421;DHT22;8828;48.800;9.540;2022-07-18T04:36:17;18.50;81.80
17421;DHT22;8828;48.800;9.540;2022-07-18T04:38:46;18.50;81.40
17421;DHT22;8828;48.800;9.540;2022-07-18T04:41:14;18.50;81.40
17421;DHT22;8828;48.800;9.540;2022-07-18T04:43:43;18.60;81.80
17421;DHT22;8828;48.800;9.540;2022-07-18T04:46:11;18.50;82.70
17421;DHT22;8828;48.800;9.540;2022-07-18T04:48:40;18.50;81.90
17421;DHT22;8828;48.800;9.540;2022-07-18T04:51:08;18.50;81.90
17421;DHT22;8828;48.800;9.540;2022-07-18T04:53:36;18.60;81.90
17421;DHT22;8828;48.800;9.540;2022-07-18T04:56:05;18.60;82.70
17421;DHT22;8828;48.800;9.540;2022-07-18T04:58:33;18.50;82.40
17421;DHT22;8828;48.800;9.540;2022-07-18T05:01:01;18.50;82.80
17421;DHT22;8828;48.800;9.540;2022-07-18T05:03:29;18.50;83.10
17421;DHT22;8828;48.800;9.540;2022-07-18T05:05:58;18.60;83.10
17421;DHT22;8828;48.800;9.540;2022-07-18T05:08:26;18.60;83.00
17421;DHT22;8828;48.800;9.540;2022-07-18T05:10:54;18.70;83.80
17421;DHT22;8828;48.800;9.540;2022-07-18T05:13:22;18.70;82.90
17421;DHT22;8828;48.800;9.540;2022-07-18T05:15:51;18.70;82.80
17421;DHT22;8828;48.800;9.540;2022-07-18T05:18:19;18.70;83.00
17421;DHT22;8828;48.800;9.540;2022-07-18T05:20:47;18.70;83.20
17421;DHT22;8828;48.800;9.540;2022-07-18T05:23:16;18.70;83.20
17421;DHT22;8828;48.800;9.540;2022-07-18T05:25:44;18.70;83.10
17421;DHT22;8828;48.800;9.540;2022-07-18T05:28:13;18.70;83.50
17421;DHT22;8828;48.800;9.540;2022-07-18T05:30:41;18.70;84.10
17421;DHT22;8828;48.800;9.540;2022-07-18T05:33:09;18.70;84.20
17421;DHT22;8828;48.800;9.540;2022-07-18T05:35:37;18.70;84.50
17421;DHT22;8828;48.800;9.540;2022-07-18T05:38:05;18.70;84.60
17421;DHT22;8828;48.800;9.540;2022-07-18T05:40:35;18.80;84.70
17421;DHT22;8828;48.800;9.540;2022-07-18T05:43:03;18.80;84.90
17421;DHT22;8828;48.800;9.540;2022-07-18T05:45:32;18.80;85.30
17421;DHT22;8828;48.800;9.540;2022-07-18T05:48:00;18.80;85.40
17421;DHT22;8828;48.800;9.540;2022-07-18T05:50:28;18.80;85.50
17421;DHT22;8828;48.800;9.540;2022-07-18T05:52:56;18.80;85.60
17421;DHT22;8828;48.800;9.540;2022-07-18T05:55:24;18.90;85.80
17421;DHT22;8828;48.800;9.540;2022-07-18T05:57:53;18.90;85.90
17421;DHT22;8828;48.800;9.540;2022-07-18T06:00:22;18.90;85.70
17421;DHT22;8828;48.800;9.540;2022-07-18T06:02:50;18.90;86.20
17421;DHT22;8828;48.800;9.540;2022-07-18T06:05:19;19.00;86.40
17421;DHT22;8828;48.800;9.540;2022-07-18T06:07:52;19.00;86.40
17421;DHT22;8828;48.800;9.540;2022-07-18T06:10:20;19.10;86.40
17421;DHT22;8828;48.800;9.540;2022-07-18T06:12:50;19.10;86.50
17421;DHT22;8828;48.800;9.540;2022-07-18T06:15:19;19.20;86.60
17421;DHT22;8828;48.800;9.540;2022-07-18T06:17:47;19.20;86.50
17421;DHT22;8828;48.800;9.540;2022-07-18T06:20:15;19.30;86.20
17421;DHT22;8828;48.800;9.540;2022-07-18T06:22:44;19.40;86.10
17421;DHT22;8828;48.800;9.540;2022-07-18T06:25:12;19.40;86.10
17421;DHT22;8828;48.800;9.540;2022-07-18T06:27:40;19.50;86.90
17421;DHT22;8828;48.800;9.540;2022-07-18T06:30:09;19.50;86.40
17421;DHT22;8828;48.800;9.540;2022-07-18T06:32:38;19.60;86.40
17421;DHT22;8828;48.800;9.540;2022-07-18T06:35:07;19.70;86.50
17421;DHT22;8828;48.800;9.540;2022-07-18T06:37:36;19.70;86.40
17421;DHT22;8828;48.800;9.540;2022-07-18T06:40:06;19.70;86.40
17421;DHT22;8828;48.800;9.540;2022-07-18T06:42:35;19.80;86.40
17421;DHT22;8828;48.800;9.540;2022-07-18T06:45:04;19.90;86.10
17421;DHT22;8828;48.800;9.540;2022-07-18T06:47:40;19.90;85.70
17421;DHT22;8828;48.800;9.540;2022-07-18T06:50:09;20.00;85.20
17421;DHT22;8828;48.800;9.540;2022-07-18T06:52:37;20.10;84.50
17421;DHT22;8828;48.800;9.540;2022-07-18T06:55:07;20.10;85.50
17421;DHT22;8828;48.800;9.540;2022-07-18T06:57:36;20.20;85.00
17421;DHT22;8828;48.800;9.540;2022-07-18T07:00:06;20.20;85.00
17421;DHT22;8828;48.800;9.540;2022-07-18T07:02:41;20.30;85.30
17421;DHT22;8828;48.800;9.540;2022-07-18T07:05:09;20.40;85.00
17421;DHT22;8828;48.800;9.540;2022-07-18T07:07:37;20.40;85.00
17421;DHT22;8828;48.800;9.540;2022-07-18T07:10:13;20.50;85.20
17421;DHT22;8828;48.800;9.540;2022-07-18T07:12:44;20.50;84.80
17421;DHT22;8828;48.800;9.540;2022-07-18T07:15:12;20.60;84.10
17421;DHT22;8828;48.800;9.540;2022-07-18T07:17:42;20.70;84.10
17421;DHT22;8828;48.800;9.540;2022-07-18T07:20:11;20.70;84.20
17421;DHT22;8828;48.800;9.540;2022-07-18T07:22:44;20.80;83.40
17421;DHT22;8828;48.800;9.540;2022-07-18T07:25:13;20.80;83.80
17421;DHT22;8828;48.800;9.540;2022-07-18T07:27:42;20.90;83.10
17421;DHT22;8828;48.800;9.540;2022-07-18T07:30:12;21.00;83.50
17421;DHT22;8828;48.800;9.540;2022-07-18T07:32:43;21.00;83.60
17421;DHT22;8828;48.800;9.540;2022-07-18T07:35:14;21.00;83.70
17421;DHT22;8828;48.800;9.540;2022-07-18T07:37:44;21.10;83.30
17421;DHT22;8828;48.800;9.540;2022-07-18T07:40:13;21.20;82.90
17421;DHT22;8828;48.800;9.540;2022-07-18T07:42:42;21.30;83.00
17421;DHT22;8828;48.800;9.540;2022-07-18T07:45:11;21.30;81.60
17421;DHT22;8828;48.800;9.540;2022-07-18T07:47:42;21.40;81.60
17421;DHT22;8828;48.800;9.540;2022-07-18T07:50:11;21.40;80.90
17421;DHT22;8828;48.800;9.540;2022-07-18T07:52:39;21.50;80.70
17421;DHT22;8828;48.800;9.540;2022-07-18T07:55:08;21.60;80.10
17421;DHT22;8828;48.800;9.540;2022-07-18T07:57:36;21.60;80.50
17421;DHT22;8828;48.800;9.540;2022-07-18T08:00:06;21.70;81.30
17421;DHT22;8828;48.800;9.540;2022-07-18T08:02:35;21.80;81.60
17421;DHT22;8828;48.800;9.540;2022-07-18T08:05:05;21.90;80.90
17421;DHT22;8828;48.800;9.540;2022-07-18T08:07:33;21.90;81.00
17421;DHT22;8828;48.800;9.540;2022-07-18T08:10:04;22.00;81.10
17421;DHT22;8828;48.800;9.540;2022-07-18T08:12:32;22.10;80.10
17421;DHT22;8828;48.800;9.540;2022-07-18T08:15:00;22.10;79.50
17421;DHT22;8828;48.800;9.540;2022-07-18T08:17:28;22.20;79.70
17421;DHT22;8828;48.800;9.540;2022-07-18T08:19:56;22.20;79.30
17421;DHT22;8828;48.800;9.540;2022-07-18T08:22:25;22.30;79.90
17421;DHT22;8828;48.800;9.540;2022-07-18T08:24:53;22.40;80.80
17421;DHT22;8828;48.800;9.540;2022-07-18T08:27:21;22.50;79.50
17421;DHT22;8828;48.800;9.540;2022-07-18T08:29:49;22.70;78.70
17421;DHT22;8828;48.800;9.540;2022-07-18T08:32:34;23.20;79.00
17421;DHT22;8828;48.800;9.540;2022-07-18T08:35:03;23.80;77.50
17421;DHT22;8828;48.800;9.540;2022-07-18T08:37:33;24.30;75.00
17421;DHT22;8828;48.800;9.540;2022-07-18T08:40:01;24.80;73.90
17421;DHT22;8828;48.800;9.540;2022-07-18T08:42:30;25.10;73.60
17421;DHT22;8828;48.800;9.540;2022-07-18T08:45:00;25.40;71.60
17421;DHT22;8828;48.800;9.540;2022-07-18T08:47:29;25.60;71.40
17421;DHT22;8828;48.800;9.540;2022-07-18T08:49:58;25.90;69.80
17421;DHT22;8828;48.800;9.540;2022-07-18T08:52:27;26.00;70.40
17421;DHT22;8828;48.800;9.540;2022-07-18T08:55:17;26.30;69.90
17421;DHT22;8828;48.800;9.540;2022-07-18T08:57:53;26.50;63.80
17421;DHT22;8828;48.800;9.540;2022-07-18T09:00:22;26.60;62.10
17421;DHT22;8828;48.800;9.540;2022-07-18T09:02:57;26.70;61.60
17421;DHT22;8828;48.800;9.540;2022-07-18T09:05:26;26.80;60.90
17421;DHT22;8828;48.800;9.540;2022-07-18T09:08:08;26.90;60.00
17421;DHT22;8828;48.800;9.540;2022-07-18T09:10:49;27.10;61.00
17421;DHT22;8828;48.800;9.540;2022-07-18T09:13:18;27.20;59.70
17421;DHT22;8828;48.800;9.540;2022-07-18T09:16:00;27.30;57.50
17421;DHT22;8828;48.800;9.540;2022-07-18T09:18:30;27.40;59.50
17421;DHT22;8828;48.800;9.540;2022-07-18T09:21:05;27.50;58.50
17421;DHT22;8828;48.800;9.540;2022-07-18T09:23:34;27.50;58.00
17421;DHT22;8828;48.800;9.540;2022-07-18T09:26:04;27.70;58.00
17421;DHT22;8828;48.800;9.540;2022-07-18T09:28:46;27.80;57.50
17421;DHT22;8828;48.800;9.540;2022-07-18T09:31:34;28.00;56.50
17421;DHT22;8828;48.800;9.540;2022-07-18T09:34:04;28.30;54.70
17421;DHT22;8828;48.800;9.540;2022-07-18T09:36:32;28.40;55.20
17421;DHT22;8828;48.800;9.540;2022-07-18T09:39:17;28.60;55.10
17421;DHT22;8828;48.800;9.540;2022-07-18T09:41:47;28.80;55.10
17421;DHT22;8828;48.800;9.540;2022-07-18T09:44:15;28.90;54.80
17421;DHT22;8828;48.800;9.540;2022-07-18T09:46:59;29.00;54.20
17421;DHT22;8828;48.800;9.540;2022-07-18T09:49:29;29.10;54.70
17421;DHT22;8828;48.800;9.540;2022-07-18T09:52:02;29.20;54.10
17421;DHT22;8828;48.800;9.540;2022-07-18T09:54:38;29.40;54.10
17421;DHT22;8828;48.800;9.540;2022-07-18T09:57:09;29.50;52.60
17421;DHT22;8828;48.800;9.540;2022-07-18T09:59:38;29.60;53.80
17421;DHT22;8828;48.800;9.540;2022-07-18T10:02:13;29.70;53.50
17421;DHT22;8828;48.800;9.540;2022-07-18T10:04:42;29.80;53.80
17421;DHT22;8828;48.800;9.540;2022-07-18T10:07:11;30.00;53.60
17421;DHT22;8828;48.800;9.540;2022-07-18T10:09:39;30.00;53.10
17421;DHT22;8828;48.800;9.540;2022-07-18T10:12:08;30.10;53.50
17421;DHT22;8828;48.800;9.540;2022-07-18T10:14:37;30.20;54.20
17421;DHT22;8828;48.800;9.540;2022-07-18T10:17:06;30.40;53.50
17421;DHT22;8828;48.800;9.540;2022-07-18T10:19:34;30.40;53.80
17421;DHT22;8828;48.800;9.540;2022-07-18T10:22:03;30.50;52.40
17421;DHT22;8828;48.800;9.540;2022-07-18T10:24:32;30.50;53.50
17421;DHT22;8828;48.800;9.540;2022-07-18T10:27:19;30.60;53.10
17421;DHT22;8828;48.800;9.540;2022-07-18T10:30:08;30.60;52.90
17421;DHT22;8828;48.800;9.540;2022-07-18T10:32:37;30.70;52.40
17421;DHT22;8828;48.800;9.540;2022-07-18T10:35:05;30.80;53.00
17421;DHT22;8828;48.800;9.540;2022-07-18T10:37:35;30.90;51.90
17421;DHT22;8828;48.800;9.540;2022-07-18T10:40:23;30.90;51.90
17421;DHT22;8828;48.800;9.540;2022-07-18T10:43:32;31.00;51.80
17421;DHT22;8828;48.800;9.540;2022-07-18T10:46:01;31.10;51.60
17421;DHT22;8828;48.800;9.540;2022-07-18T10:48:52;31.20;50.90
17421;DHT22;8828;48.800;9.540;2022-07-18T10:51:31;31.30;51.50
17421;DHT22;8828;48.800;9.540;2022-07-18T10:54:10;31.40;50.80
17421;DHT22;8828;48.800;9.540;2022-07-18T10:57:05;31.50;50.90
17421;DHT22;8828;48.800;9.540;2022-07-18T10:59:37;31.60;50.20
17421;DHT22;8828;48.800;9.540;2022-07-18T11:02:06;31.60;50.40
17421;DHT22;8828;48.800;9.540;2022-07-18T11:04:39;31.60;50.30
17421;DHT22;8828;48.800;9.540;2022-07-18T11:07:11;31.60;51.40
17421;DHT22;8828;48.800;9.540;2022-07-18T11:09:42;31.60;51.10
17421;DHT22;8828;48.800;9.540;2022-07-18T11:12:26;31.80;50.50
17421;DHT22;8828;48.800;9.540;2022-07-18T11:15:09;31.90;52.00
17421;DHT22;8828;48.800;9.540;2022-07-18T11:17:57;32.00;50.00
17421;DHT22;8828;48.800;9.540;2022-07-18T11:20:35;32.00;50.00
17421;DHT22;8828;48.800;9.540;2022-07-18T11:23:12;32.10;50.10
17421;DHT22;8828;48.800;9.540;2022-07-18T11:25:41;32.00;48.70
17421;DHT22;8828;48.800;9.540;2022-07-18T11:28:26;32.00;50.20
17421;DHT22;8828;48.800;9.540;2022-07-18T11:31:04;32.10;49.70
17421;DHT22;8828;48.800;9.540;2022-07-18T11:33:34;32.20;50.80
17421;DHT22;8828;48.800;9.540;2022-07-18T11:36:04;32.30;50.50
17421;DHT22;8828;48.800;9.540;2022-07-18T11:38:34;32.30;50.00
17421;DHT22;8828;48.800;9.540;2022-07-18T11:41:04;32.40;49.80
17421;DHT22;8828;48.800;9.540;2022-07-18T11:43:32;32.40;49.00
17421;DHT22;8828;48.800;9.540;2022-07-18T11:46:03;32.50;50.30
17421;DHT22;8828;48.800;9.540;2022-07-18T11:48:38;32.40;50.10
17421;DHT22;8828;48.800;9.540;2022-07-18T11:51:08;32.40;50.50
17421;DHT22;8828;48.800;9.540;2022-07-18T11:53:42;32.50;49.70
17421;DHT22;8828;48.800;9.540;2022-07-18T11:56:11;32.50;48.80
17421;DHT22;8828;48.800;9.540;2022-07-18T11:58:41;32.60;49.30
17421;DHT22;8828;48.800;9.540;2022-07-18T12:01:12;32.70;49.80
17421;DHT22;8828;48.800;9.540;2022-07-18T12:03:41;32.70;48.80
17421;DHT22;8828;48.800;9.540;2022-07-18T12:06:12;32.80;48.60
17421;DHT22;8828;48.800;9.540;2022-07-18T12:08:41;32.80;48.30
17421;DHT22;8828;48.800;9.540;2022-07-18T12:11:15;32.90;49.20
17421;DHT22;8828;48.800;9.540;2022-07-18T12:13:49;32.90;48.70
17421;DHT22;8828;48.800;9.540;2022-07-18T12:16:27;32.90;48.80
17421;DHT22;8828;48.800;9.540;2022-07-18T12:18:56;32.90;49.00
17421;DHT22;8828;48.800;9.540;2022-07-18T12:21:37;32.90;48.30
17421;DHT22;8828;48.800;9.540;2022-07-18T12:24:22;32.80;48.80
17421;DHT22;8828;48.800;9.540;2022-07-18T12:27:16;32.80;48.70
17421;DHT22;8828;48.800;9.540;2022-07-18T12:30:12;32.80;49.40
17421;DHT22;8828;48.800;9.540;2022-07-18T12:32:44;32.90;48.80
17421;DHT22;8828;48.800;9.540;2022-07-18T12:35:14;32.90;48.70
17421;DHT22;8828;48.800;9.540;2022-07-18T12:37:52;32.90;48.90
17421;DHT22;8828;48.800;9.540;2022-07-18T12:40:20;32.90;48.60
17421;DHT22;8828;48.800;9.540;2022-07-18T12:43:02;32.90;48.80
17421;DHT22;8828;48.800;9.540;2022-07-18T12:45:31;33.00;48.20
17421;DHT22;8828;48.800;9.540;2022-07-18T12:48:01;33.10;49.10
17421;DHT22;8828;48.800;9.540;2022-07-18T12:50:29;33.20;47.70
17421;DHT22;8828;48.800;9.540;2022-07-18T12:52:57;33.20;47.30
17421;DHT22;8828;48.800;9.540;2022-07-18T12:55:25;33.20;47.80
17421;DHT22;8828;48.800;9.540;2022-07-18T12:57:58;33.20;47.80
17421;DHT22;8828;48.800;9.540;2022-07-18T13:00:26;33.20;48.10
17421;DHT22;8828;48.800;9.540;2022-07-18T13:02:56;33.20;47.60
17421;DHT22;8828;48.800;9.540;2022-07-18T13:05:27;33.30;47.60
17421;DHT22;8828;48.800;9.540;2022-07-18T13:07:55;33.30;47.60
17421;DHT22;8828;48.800;9.540;2022-07-18T13:10:23;33.30;48.30
17421;DHT22;8828;48.800;9.540;2022-07-18T13:12:51;33.30;47.20
17421;DHT22;8828;48.800;9.540;2022-07-18T13:15:20;33.20;47.60
17421;DHT22;8828;48.800;9.540;2022-07-18T13:17:48;33.20;48.10
17421;DHT22;8828;48.800;9.540;2022-07-18T13:20:17;33.20;47.90
17421;DHT22;8828;48.800;9.540;2022-07-18T13:22:46;33.20;46.60
17421;DHT22;8828;48.800;9.540;2022-07-18T13:25:20;33.20;47.50
17421;DHT22;8828;48.800;9.540;2022-07-18T13:27:49;33.00;47.20
17421;DHT22;8828;48.800;9.540;2022-07-18T13:30:17;32.60;47.00
17421;DHT22;8828;48.800;9.540;2022-07-18T13:32:45;32.30;48.20
17421;DHT22;8828;48.800;9.540;2022-07-18T13:35:14;31.90;48.30
17421;DHT22;8828;48.800;9.540;2022-07-18T13:37:42;31.70;48.40
17421;DHT22;8828;48.800;9.540;2022-07-18T13:40:12;31.40;48.80
17421;DHT22;8828;48.800;9.540;2022-07-18T13:42:42;31.20;49.10
17421;DHT22;8828;48.800;9.540;2022-07-18T13:45:10;31.10;49.70
17421;DHT22;8828;48.800;9.540;2022-07-18T13:47:40;30.90;50.50
17421;DHT22;8828;48.800;9.540;2022-07-18T13:50:09;30.90;50.10
17421;DHT22;8828;48.800;9.540;2022-07-18T13:52:38;30.70;50.00
17421;DHT22;8828;48.800;9.540;2022-07-18T13:55:06;30.60;50.00
17421;DHT22;8828;48.800;9.540;2022-07-18T13:57:36;30.60;50.20
17421;DHT22;8828;48.800;9.540;2022-07-18T14:00:07;30.50;50.00
17421;DHT22;8828;48.800;9.540;2022-07-18T14:02:36;30.40;50.60
17421;DHT22;8828;48.800;9.540;2022-07-18T14:05:05;30.30;50.70
17421;DHT22;8828;48.800;9.540;2022-07-18T14:07:38;30.30;50.20
17421;DHT22;8828;48.800;9.540;2022-07-18T14:10:07;30.30;50.60
17421;DHT22;8828;48.800;9.540;2022-07-18T14:12:36;30.20;50.50
17421;DHT22;8828;48.800;9.540;2022-07-18T14:15:05;30.10;50.60
17421;DHT22;8828;48.800;9.540;2022-07-18T14:17:34;30.10;50.90
17421;DHT22;8828;48.800;9.540;2022-07-18T14:20:03;30.10;50.10
17421;DHT22;8828;48.800;9.540;2022-07-18T14:22:32;30.00;50.20
17421;DHT22;8828;48.800;9.540;2022-07-18T14:24:59;30.00;50.80
17421;DHT22;8828;48.800;9.540;2022-07-18T14:27:28;29.90;50.60
17421;DHT22;8828;48.800;9.540;2022-07-18T14:29:57;29.90;50.90
17421;DHT22;8828;48.800;9.540;2022-07-18T14:32:26;29.90;49.90
17421;DHT22;8828;48.800;9.540;2022-07-18T14:34:54;29.80;50.60
17421;DHT22;8828;48.800;9.540;2022-07-18T14:37:22;29.80;50.60
17421;DHT22;8828;48.800;9.540;2022-07-18T14:39:50;29.80;50.80
17421;DHT22;8828;48.800;9.540;2022-07-18T14:42:22;29.80;51.10
17421;DHT22;8828;48.800;9.540;2022-07-18T14:44:50;29.90;50.70
17421;DHT22;8828;48.800;9.540;2022-07-18T14:47:20;29.80;50.30
17421;DHT22;8828;48.800;9.540;2022-07-18T14:49:48;29.80;50.70
17421;DHT22;8828;48.800;9.540;2022-07-18T14:52:16;29.70;51.20
17421;DHT22;8828;48.800;9.540;2022-07-18T14:54:44;29.80;50.70
17421;DHT22;8828;48.800;9.540;2022-07-18T14:57:13;29.70;50.70
17421;DHT22;8828;48.800;9.540;2022-07-18T14:59:43;29.70;49.80
17421;DHT22;8828;48.800;9.540;2022-07-18T15:02:11;29.70;50.80
17421;DHT22;8828;48.800;9.540;2022-07-18T15:04:43;29.70;50.60
17421;DHT22;8828;48.800;9.540;2022-07-18T15:07:11;29.60;50.50
17421;DHT22;8828;48.800;9.540;2022-07-18T15:09:40;29.60;50.90
17421;DHT22;8828;48.800;9.540;2022-07-18T15:12:08;29.60;51.10
17421;DHT22;8828;48.800;9.540;2022-07-18T15:14:36;29.60;51.00
17421;DHT22;8828;48.800;9.540;2022-07-18T15:17:04;29.60;50.90
17421;DHT22;8828;48.800;9.540;2022-07-18T15:19:32;29.60;51.10
17421;DHT22;8828;48.800;9.540;2022-07-18T15:22:02;29.60;50.70
17421;DHT22;8828;48.800;9.540;2022-07-18T15:24:32;29.60;51.40
17421;DHT22;8828;48.800;9.540;2022-07-18T15:27:00;29.50;50.60
17421;DHT22;8828;48.800;9.540;2022-07-18T15:29:28;29.50;50.70
17421;DHT22;8828;48.800;9.540;2022-07-18T15:31:56;29.40;50.60
17421;DHT22;8828;48.800;9.540;2022-07-18T15:34:25;29.40;50.60
17421;DHT22;8828;48.800;9.540;2022-07-18T15:36:53;29.40;51.20
17421;DHT22;8828;48.800;9.540;2022-07-18T15:39:22;29.40;51.30
17421;DHT22;8828;48.800;9.540;2022-07-18T15:41:51;29.40;51.20
17421;DHT22;8828;48.800;9.540;2022-07-18T15:44:19;29.40;51.30
17421;DHT22;8828;48.800;9.540;2022-07-18T15:46:47;29.40;51.50
17421;DHT22;8828;48.800;9.540;2022-07-18T15:49:15;29.40;51.40
17421;DHT22;8828;48.800;9.540;2022-07-18T15:51:43;29.40;51.80
17421;DHT22;8828;48.800;9.540;2022-07-18T15:54:14;29.30;51.50
17421;DHT22;8828;48.800;9.540;2022-07-18T15:56:44;29.40;51.60
17421;DHT22;8828;48.800;9.540;2022-07-18T15:59:12;29.30;51.30
17421;DHT22;8828;48.800;9.540;2022-07-18T16:01:40;29.30;51.40
17421;DHT22;8828;48.800;9.540;2022-07-18T16:04:09;29.30;51.70